Time;durP1;ratioP1;P1;durP2;ratioP2;P2;SDS_P1;SDS_P2;PMS_P1;PMS_P2;Temp;Humidity;BMP_temperature;BMP_pressure;BME280_temperature;BME280_humidity;BME280_pressure;Samples;Min_cycle;Max_cycle;Signal;HPM_P1;HPM_P2
2023/03/14 06:08:27;;;;;;;;;;;;;;;;;;;;;
2023/03/14 06:10:56;;;;;;;2.93;1.27;;;;;;;7.86;81.30;93585.38;5020851;28;20733;-86
2023/03/14 06:13:27;;;;;;;1.63;0.60;;;;;;;7.84;81.43;93597.66;5019664;28;20179;-85
2023/03/14 06:15:52;;;;;;;1.90;0.50;;;;;;;7.90;81.86;93589.22;5016519;28;20234;-86
2023/03/14 06:18:21;;;;;;;2.23;0.50;;;;;;;7.86;81.72;93593.13;5008962;28;20178;-85
2023/03/14 06:20:46;;;;;;;2.90;1.10;;;;;;;8.03;81.47;93573.06;5000590;28;20206;-84
2023/03/14 06:23:21;;;;;;;1.23;0.60;;;;;;;7.92;81.71;93580.28;5017306;28;20587;-86
2023/03/14 06:25:47;;;;;;;1.70;0.67;;;;;;;8.09;80.91;93580.91;4994622;28;20270;-87
2023/03/14 06:28:12;;;;;;;2.00;0.60;;;;;;;7.98;81.22;93570.22;5019572;28;20179;-84
2023/03/14 06:30:37;;;;;;;3.27;0.70;;;;;;;8.06;81.51;93562.38;5011804;28;20244;-85
2023/03/14 06:33:03;;;;;;;1.87;0.67;;;;;;;8.10;81.22;93561.03;5021037;28;20202;-85
2023/03/14 06:35:28;;;;;;;1.57;0.40;;;;;;;8.00;81.76;93558.72;4999365;28;20193;-85
2023/03/14 06:37:53;;;;;;;3.07;0.87;;;;;;;7.92;81.55;93563.97;4995562;28;20214;-85
2023/03/14 06:40:19;;;;;;;1.33;0.57;;;;;;;7.94;81.94;93574.94;4990861;28;20257;-85
2023/03/14 06:42:45;;;;;;;0.90;0.50;;;;;;;7.95;82.20;93571.38;5001718;28;20322;-85
2023/03/14 06:45:11;;;;;;;1.70;0.60;;;;;;;8.12;81.72;93562.44;5001126;28;20620;-86
2023/03/14 06:47:37;;;;;;;1.30;0.40;;;;;;;7.90;81.33;93565.97;5005004;28;20215;-85
2023/03/14 06:50:04;;;;;;;1.87;0.50;;;;;;;8.13;81.08;93560.69;5010886;28;20201;-84
2023/03/14 06:52:29;;;;;;;2.10;0.53;;;;;;;8.12;80.90;93567.59;5007152;28;20191;-85
2023/03/14 06:54:54;;;;;;;2.13;0.57;;;;;;;8.17;80.63;93572.25;5001269;28;20235;-85
2023/03/14 06:57:20;;;;;;;2.77;0.70;;;;;;;8.16;80.74;93576.63;5015201;28;20633;-84
2023/03/14 06:59:45;;;;;;;1.00;0.60;;;;;;;8.48;79.67;93587.53;4995412;28;20327;-84
2023/03/14 07:02:12;;;;;;;1.23;0.60;;;;;;;8.49;79.92;93584.00;5001755;28;20243;-84
2023/03/14 07:04:37;;;;;;;1.13;0.70;;;;;;;8.77;78.85;93582.28;4993661;28;20582;-85
2023/03/14 07:07:02;;;;;;;1.13;0.50;;;;;;;8.64;78.67;93579.56;5016812;28;20218;-84
2023/03/14 07:09:28;;;;;;;2.10;0.70;;;;;;;8.80;77.42;93565.59;5002485;28;20194;-83
2023/03/14 07:11:53;;;;;;;2.00;0.70;;;;;;;8.87;76.98;93584.56;5000807;28;20197;-84
2023/03/14 07:14:18;;;;;;;1.70;0.70;;;;;;;9.00;75.71;93589.06;4988648;28;20202;-85
2023/03/14 07:16:44;;;;;;;1.07;0.70;;;;;;;9.03;75.57;93588.72;4989047;28;20776;-85
2023/03/14 07:19:10;;;;;;;1.17;0.50;;;;;;;9.21;74.50;93603.81;5016306;28;20750;-85
2023/03/14 07:21:36;;;;;;;0.87;0.50;;;;;;;9.33;73.64;93603.09;4991610;28;20206;-84
2023/03/14 07:24:01;;;;;;;0.70;0.50;;;;;;;9.25;73.22;93618.78;5004811;28;20531;-84
2023/03/14 07:26:26;;;;;;;2.67;0.47;;;;;;;9.01;73.96;93629.50;4989409;28;20211;-85
2023/03/14 07:28:52;;;;;;;2.40;0.67;;;;;;;9.23;74.10;93628.53;4989469;28;20281;-85
2023/03/14 07:31:17;;;;;;;0.73;0.67;;;;;;;9.16;74.90;93637.22;5005854;28;20182;-85
2023/03/14 07:33:42;;;;;;;1.00;0.60;;;;;;;9.58;73.85;93636.38;5017604;28;20193;-84
2023/03/14 07:36:08;;;;;;;1.00;0.70;;;;;;;9.55;74.75;93644.53;5000778;28;20229;-85
2023/03/14 07:38:33;;;;;;;1.00;0.70;;;;;;;9.86;74.38;93655.31;5001246;28;20218;-85
2023/03/14 07:41:00;;;;;;;0.90;0.50;;;;;;;9.66;74.88;93656.97;4997404;28;20205;-85
2023/03/14 07:43:25;;;;;;;0.40;0.37;;;;;;;9.97;74.30;93658.38;5015279;28;20558;-85
2023/03/14 07:45:50;;;;;;;1.53;0.43;;;;;;;9.98;74.41;93658.19;5013269;28;20214;-84
2023/03/14 07:48:16;;;;;;;0.93;0.40;;;;;;;9.74;73.44;93672.41;4999091;28;20727;-84
2023/03/14 07:50:41;;;;;;;0.50;0.40;;;;;;;9.39;74.02;93665.53;5017214;28;20269;-84
2023/03/14 07:53:06;;;;;;;0.50;0.40;;;;;;;9.76;74.47;93665.22;5008345;28;20186;-84
2023/03/14 07:55:32;;;;;;;0.70;0.40;;;;;;;9.26;74.61;93674.75;4998471;28;20638;-87
2023/03/14 07:57:57;;;;;;;1.33;0.50;;;;;;;9.09;75.02;93669.00;4996596;28;20222;-85
2023/03/14 08:00:22;;;;;;;0.50;0.40;;;;;;;9.47;73.88;93666.19;4996834;28;20190;-86
2023/03/14 08:02:48;;;;;;;6.60;0.67;;;;;;;9.49;74.69;93668.59;4998474;28;20186;-86
2023/03/14 08:05:13;;;;;;;0.60;0.30;;;;;;;9.81;74.15;93667.28;4994040;28;20202;-85
2023/03/14 08:07:38;;;;;;;1.33;0.63;;;;;;;9.84;74.01;93675.47;4991794;28;20217;-86
2023/03/14 08:10:04;;;;;;;1.73;0.40;;;;;;;9.51;74.64;93664.03;4998704;28;20183;-85
2023/03/14 08:12:30;;;;;;;3.30;0.53;;;;;;;9.39;74.77;93675.88;5011588;28;20221;-86
2023/03/14 08:14:55;;;;;;;0.40;0.40;;;;;;;9.64;74.92;93666.75;5016736;28;20190;-86
2023/03/14 08:17:20;;;;;;;0.40;0.40;;;;;;;9.52;74.53;93660.44;5011392;28;20237;-85
2023/03/14 08:19:46;;;;;;;1.40;0.40;;;;;;;9.41;74.77;93660.94;4988445;28;20249;-85
2023/03/14 08:22:11;;;;;;;2.17;0.40;;;;;;;9.34;74.90;93666.06;5008790;28;20182;-85
2023/03/14 08:24:36;;;;;;;0.83;0.40;;;;;;;9.51;74.85;93669.22;5012270;28;20304;-84
2023/03/14 08:27:07;;;;;;;0.83;0.40;;;;;;;9.75;75.22;93668.81;4996128;28;20199;-86
2023/03/14 08:29:32;;;;;;;1.30;0.57;;;;;;;9.64;74.71;93661.56;5000005;28;20205;-86
2023/03/14 08:31:57;;;;;;;0.67;0.43;;;;;;;9.62;74.48;93658.31;5000473;28;20272;-85
2023/03/14 08:34:23;;;;;;;1.63;0.80;;;;;;;9.54;75.27;93672.25;4989753;28;20218;-86
2023/03/14 08:36:48;;;;;;;2.77;0.50;;;;;;;9.32;75.30;93662.88;5005346;28;20293;-86
2023/03/14 08:39:13;;;;;;;0.93;0.80;;;;;;;9.42;75.72;93672.91;4999341;28;20278;-86
2023/03/14 08:41:41;;;;;;;0.63;0.63;;;;;;;9.53;75.85;93668.03;5015415;28;20661;-83
2023/03/14 08:44:07;;;;;;;3.77;0.57;;;;;;;9.23;75.38;93669.97;5015968;28;20185;-87
2023/03/14 08:46:33;;;;;;;2.53;0.50;;;;;;;9.68;74.54;93669.75;4994239;28;20209;-84
2023/03/14 08:48:58;;;;;;;0.90;0.40;;;;;;;9.37;74.40;93670.91;4991063;28;20183;-86
2023/03/14 08:51:23;;;;;;;2.23;0.50;;;;;;;9.41;75.39;93671.31;4997964;28;20559;-84
2023/03/14 08:53:48;;;;;;;1.60;0.50;;;;;;;9.50;76.97;93667.59;4998691;28;20186;-86
2023/03/14 08:56:14;;;;;;;2.73;0.37;;;;;;;9.46;77.16;93666.38;4990384;28;20214;-86
2023/03/14 08:58:41;;;;;;;0.60;0.40;;;;;;;9.64;77.88;93677.91;5000117;28;20260;-86
2023/03/14 09:01:08;;;;;;;0.30;0.30;;;;;;;9.56;78.44;93677.25;4988975;28;20190;-86
2023/03/14 09:03:33;;;;;;;1.10;0.60;;;;;;;9.85;77.70;93691.81;5013495;28;20563;-86
2023/03/14 09:06:04;;;;;;;1.13;0.50;;;;;;;9.80;77.44;93687.19;4989990;28;20216;-86
2023/03/14 09:08:29;;;;;;;0.83;0.43;;;;;;;9.78;78.98;93694.34;4991879;28;20182;-87
2023/03/14 09:10:54;;;;;;;0.30;0.30;;;;;;;9.64;78.98;93693.47;4990908;28;20530;-87
2023/03/14 09:13:19;;;;;;;0.50;0.50;;;;;;;9.36;79.29;93690.81;5000897;28;20589;-85
2023/03/14 09:15:50;;;;;;;0.50;0.43;;;;;;;9.43;79.27;93693.44;5000577;28;20243;-85
2023/03/14 09:18:15;;;;;;;1.83;0.40;;;;;;;9.73;77.69;93698.50;5000322;28;20190;-85
2023/03/14 09:20:41;;;;;;;0.30;0.30;;;;;;;9.65;76.93;93699.44;4997757;28;20250;-86
2023/03/14 09:23:07;;;;;;;0.73;0.37;;;;;;;9.60;77.71;93692.22;5017073;28;20634;-85
2023/03/14 09:25:32;;;;;;;0.30;0.30;;;;;;;9.50;76.88;93703.88;4993762;28;20218;-85
2023/03/14 09:27:57;;;;;;;0.40;0.30;;;;;;;9.36;78.17;93697.75;5006901;28;20199;-84
2023/03/14 09:30:22;;;;;;;2.13;0.40;;;;;;;9.53;77.47;93700.91;4993887;28;20199;-84
2023/03/14 09:32:48;;;;;;;0.33;0.20;;;;;;;9.65;76.65;93708.00;5002561;28;20645;-84
2023/03/14 09:35:13;;;;;;;1.13;0.40;;;;;;;9.86;76.29;93711.56;4990090;28;20317;-85
2023/03/14 09:37:38;;;;;;;0.57;0.30;;;;;;;9.73;77.43;93717.44;5012493;28;20598;-85
2023/03/14 09:40:10;;;;;;;1.37;0.20;;;;;;;9.59;77.47;93720.91;4998881;28;20194;-85
2023/03/14 09:42:37;;;;;;;1.13;0.30;;;;;;;10.10;76.27;93718.94;5013045;28;20215;-84
2023/03/14 09:45:08;;;;;;;0.87;0.40;;;;;;;9.98;76.17;93720.41;5009431;28;20611;-86
2023/03/14 09:47:34;;;;;;;0.30;0.30;;;;;;;9.98;75.91;93725.59;5019486;28;20209;-85
2023/03/14 09:50:03;;;;;;;0.43;0.30;;;;;;;10.16;76.25;93722.56;5017766;28;20187;-86
2023/03/14 09:52:35;;;;;;;0.30;0.30;;;;;;;10.53;74.76;93718.03;5016569;28;20257;-85
2023/03/14 09:55:25;;;;;;;0.20;0.20;;;;;;;9.97;73.47;93728.38;5019018;28;20236;-85
2023/03/14 09:57:56;;;;;;;0.20;0.20;;;;;;;10.31;74.18;93730.25;5024310;28;20631;-86
2023/03/14 10:00:23;;;;;;;2.53;0.40;;;;;;;10.16;73.88;93727.75;5018736;28;20782;-87
2023/03/14 10:02:58;;;;;;;0.40;0.33;;;;;;;10.32;72.75;93724.88;4995876;28;20242;-86
2023/03/14 10:05:25;;;;;;;0.57;0.20;;;;;;;10.71;72.47;93728.69;4993781;28;20298;-85
2023/03/14 10:07:50;;;;;;;0.30;0.30;;;;;;;10.59;72.49;93730.22;5006794;28;20283;-86
2023/03/14 10:10:19;;;;;;;0.60;0.33;;;;;;;10.03;75.70;93722.47;4993874;28;20254;-85
2023/03/14 10:12:46;;;;;;;0.20;0.20;;;;;;;10.33;77.08;93731.66;4992202;28;20194;-86
2023/03/14 10:15:17;;;;;;;0.60;0.60;;;;;;;10.46;78.46;93734.34;5009690;28;20742;-86
2023/03/14 10:17:47;;;;;;;0.30;0.30;;;;;;;10.34;79.75;93733.28;4992209;28;20302;-85
2023/03/14 10:20:35;;;;;;;0.40;0.30;;;;;;;10.44;78.68;93728.56;5017057;28;20650;-85
2023/03/14 10:23:03;;;;;;;0.37;0.30;;;;;;;10.07;80.51;93726.25;4998154;28;20244;-85
2023/03/14 10:25:33;;;;;;;0.33;0.27;;;;;;;9.72;79.53;93726.22;5010850;28;20215;-86
2023/03/14 10:27:59;;;;;;;1.20;0.30;;;;;;;10.29;80.94;93742.63;5031787;28;20202;-86
2023/03/14 10:30:43;;;;;;;0.30;0.30;;;;;;;9.73;82.60;93730.41;5018509;28;20273;-85
2023/03/14 10:33:23;;;;;;;0.30;0.30;;;;;;;10.04;81.04;93729.25;4994354;28;20194;-86
2023/03/14 10:35:55;;;;;;;0.93;0.30;;;;;;;9.80;82.38;93730.44;4990003;28;20187;-84
2023/03/14 10:38:24;;;;;;;0.40;0.40;;;;;;;10.42;81.19;93745.28;4992118;28;20293;-88
2023/03/14 10:40:52;;;;;;;1.33;0.40;;;;;;;10.26;83.05;93749.00;4987137;28;20245;-85
2023/03/14 10:43:21;;;;;;;1.60;0.40;;;;;;;10.02;82.95;93755.38;5018917;28;20622;-85
2023/03/14 10:45:57;;;;;;;0.30;0.20;;;;;;;9.52;85.27;93743.34;4997595;28;20884;-84
2023/03/14 10:48:24;;;;;;;0.53;0.30;;;;;;;10.12;84.93;93749.84;5000561;28;20277;-86
2023/03/14 10:50:53;;;;;;;0.80;0.40;;;;;;;10.11;84.80;93753.44;5010507;28;20218;-84
2023/03/14 10:53:19;;;;;;;0.33;0.30;;;;;;;9.79;86.20;93767.72;5003232;28;20277;-85
2023/03/14 10:55:45;;;;;;;1.70;0.37;;;;;;;9.35;88.69;93761.72;5000895;28;20214;-84
2023/03/14 10:58:39;;;;;;;0.63;0.30;;;;;;;9.30;87.31;93758.91;5013444;28;20190;-83
2023/03/14 11:01:23;;;;;;;0.93;0.40;;;;;;;9.13;87.61;93767.88;5025622;28;20198;-84
2023/03/14 11:03:54;;;;;;;0.70;0.30;;;;;;;9.42;87.17;93759.22;5003764;28;20209;-83
2023/03/14 11:06:31;;;;;;;0.30;0.30;;;;;;;9.17;88.06;93763.91;4996814;28;20689;-84
2023/03/14 11:09:15;;;;;;;0.40;0.40;;;;;;;9.31;87.02;93775.25;5004317;28;20205;-85
2023/03/14 11:11:45;;;;;;;0.40;0.30;;;;;;;9.23;86.02;93762.41;5007203;28;20218;-84
2023/03/14 11:14:23;;;;;;;0.33;0.30;;;;;;;9.11;85.83;93767.25;4993462;28;20202;-85
2023/03/14 11:17:21;;;;;;;0.30;0.30;;;;;;;8.93;86.91;93772.81;4997696;28;20220;-86
2023/03/14 11:20:08;;;;;;;0.47;0.40;;;;;;;9.31;87.16;93770.06;4993205;28;20260;-85
2023/03/14 11:22:40;;;;;;;0.53;0.33;;;;;;;9.19;88.18;93784.44;5001547;28;20194;-84
2023/03/14 11:25:21;;;;;;;0.40;0.40;;;;;;;9.10;86.54;93783.78;4991959;28;20577;-84
2023/03/14 11:27:59;;;;;;;0.40;0.40;;;;;;;8.96;86.24;93779.41;4997686;28;20206;-86
2023/03/14 11:30:50;;;;;;;0.63;0.50;;;;;;;8.95;86.88;93781.19;5007372;28;20186;-85
2023/03/14 11:33:25;;;;;;;0.63;0.43;;;;;;;9.15;86.08;93796.16;5007714;28;20265;-86
2023/03/14 11:36:06;;;;;;;1.07;0.30;;;;;;;8.84;88.09;93801.56;4988731;28;20197;-86
2023/03/14 11:38:41;;;;;;;0.83;0.70;;;;;;;8.82;89.41;93803.50;4989528;28;20187;-85
2023/03/14 11:41:25;;;;;;;0.40;0.40;;;;;;;8.83;89.80;93795.56;5023206;28;20189;-86
2023/03/14 11:43:58;;;;;;;0.40;0.40;;;;;;;9.13;89.77;93795.56;4996852;28;20654;-86
2023/03/14 11:46:27;;;;;;;0.40;0.40;;;;;;;9.41;90.22;93803.44;4999748;28;20250;-86
2023/03/14 11:49:16;;;;;;;0.70;0.60;;;;;;;9.46;90.53;93834.78;5013551;28;20195;-87
2023/03/14 11:51:46;;;;;;;0.40;0.40;;;;;;;9.36;90.74;93835.88;5002608;28;20205;-86
2023/03/14 11:54:37;;;;;;;0.50;0.50;;;;;;;8.97;92.35;93845.75;4995508;28;20190;-86
2023/03/14 11:57:12;;;;;;;2.00;0.70;;;;;;;9.09;89.56;93863.22;5032907;28;20210;-88
2023/03/14 12:00:21;;;;;;;1.00;0.50;;;;;;;9.03;91.59;93847.63;5011237;28;20618;-86
2023/03/14 12:03:00;;;;;;;4.03;2.90;;;;;;;9.67;89.01;93857.34;5011911;28;20203;-86
2023/03/14 12:05:53;;;;;;;2.20;2.00;;;;;;;9.46;87.84;93877.06;5014209;28;20245;-85
2023/03/14 12:08:30;;;;;;;1.27;1.17;;;;;;;8.88;87.86;93878.69;5014546;28;20626;-87
2023/03/14 12:11:01;;;;;;;1.20;1.10;;;;;;;8.61;87.50;93885.25;5008938;28;20194;-85
2023/03/14 12:13:33;;;;;;;1.40;0.83;;;;;;;8.61;86.85;93895.59;4996480;28;20278;-87
2023/03/14 12:16:00;;;;;;;2.27;1.10;;;;;;;8.42;82.66;93890.94;4987432;28;20211;-85
2023/03/14 12:18:31;;;;;;;1.50;1.17;;;;;;;7.99;80.80;93933.69;4987484;28;20194;-85
2023/03/14 12:20:59;;;;;;;1.70;1.20;;;;;;;8.05;76.42;93938.19;4992350;28;20191;-85
2023/03/14 12:23:26;;;;;;;2.03;1.20;;;;;;;8.31;77.03;93922.34;5011931;28;20221;-85
2023/03/14 12:26:13;;;;;;;1.30;1.20;;;;;;;8.19;74.76;93934.84;4998491;28;20214;-85
2023/03/14 12:28:45;;;;;;;1.53;0.90;;;;;;;8.29;75.46;93939.78;5011925;28;20190;-84
2023/03/14 12:31:28;;;;;;;1.43;0.97;;;;;;;8.23;74.26;93947.28;4990402;28;20609;-85
2023/03/14 12:34:03;;;;;;;2.23;1.70;;;;;;;8.21;72.28;93938.06;5010017;28;20198;-85
2023/03/14 12:37:10;;;;;;;2.50;1.20;;;;;;;8.32;70.38;93947.22;4996900;28;20209;-85
2023/03/14 12:39:44;;;;;;;1.20;0.90;;;;;;;8.79;68.90;93949.63;5009199;28;20569;-85
2023/03/14 12:42:28;;;;;;;2.60;0.80;;;;;;;8.74;68.33;93954.50;5006993;28;20263;-85
2023/03/14 12:45:14;;;;;;;2.27;0.80;;;;;;;8.56;66.55;93952.22;5014555;28;20634;-85
2023/03/14 12:47:39;;;;;;;3.23;1.17;;;;;;;8.40;65.99;93966.13;5011512;28;20218;-85
2023/03/14 12:50:14;;;;;;;1.43;0.80;;;;;;;8.37;63.85;93968.22;5003458;28;20576;-85
2023/03/14 12:53:06;;;;;;;1.73;0.90;;;;;;;8.73;63.31;93983.97;4986994;28;20199;-85
2023/03/14 12:56:02;;;;;;;2.47;0.90;;;;;;;8.31;62.48;93995.56;5013447;28;20182;-87
2023/03/14 12:58:55;;;;;;;3.27;1.00;;;;;;;7.86;63.89;93994.53;5009726;28;20244;-85
2023/03/14 13:01:21;;;;;;;1.83;0.87;;;;;;;8.18;62.43;94001.28;4992615;28;20246;-84
2023/03/14 13:03:57;;;;;;;2.10;0.70;;;;;;;8.49;62.26;94013.44;4992419;28;20198;-84
2023/03/14 13:07:00;;;;;;;2.73;0.80;;;;;;;8.19;61.70;94018.41;5027810;28;20333;-85
2023/03/14 13:09:25;;;;;;;1.60;0.90;;;;;;;8.57;59.64;94025.47;5001223;28;20198;-85
2023/03/14 13:11:50;;;;;;;1.13;1.00;;;;;;;8.71;59.86;94019.56;5007853;28;20186;-85
2023/03/14 13:14:16;;;;;;;1.50;0.60;;;;;;;8.77;59.06;94037.81;5012571;28;20553;-86
2023/03/14 13:16:42;;;;;;;0.93;0.63;;;;;;;8.98;57.94;94063.03;5004326;28;20342;-85
2023/03/14 13:19:29;;;;;;;3.13;0.70;;;;;;;9.19;57.40;94048.63;4995368;28;20197;-86
2023/03/14 13:22:04;;;;;;;1.10;0.70;;;;;;;8.83;56.01;94080.28;4999201;28;20190;-85
2023/03/14 13:24:33;;;;;;;1.70;0.67;;;;;;;9.23;58.33;94070.63;4987721;28;20288;-84
2023/03/14 13:26:58;;;;;;;3.93;0.80;;;;;;;8.37;55.16;94069.09;5004399;28;20215;-85
2023/03/14 13:29:27;;;;;;;1.73;0.70;;;;;;;8.50;54.76;94061.59;4999314;28;20199;-87
2023/03/14 13:31:54;;;;;;;3.13;0.53;;;;;;;8.12;55.15;94081.31;5005158;28;20186;-86
2023/03/14 13:34:20;;;;;;;1.67;0.60;;;;;;;8.03;55.34;94067.59;5014057;28;20592;-85
2023/03/14 13:36:45;;;;;;;0.60;0.50;;;;;;;7.92;54.19;94065.41;5013189;28;20678;-85
2023/03/14 13:39:14;;;;;;;2.73;0.60;;;;;;;8.06;52.04;94100.09;5012614;28;20198;-84
2023/03/14 13:41:40;;;;;;;5.37;0.90;;;;;;;8.15;52.06;94075.81;5012682;28;20183;-85
2023/03/14 13:44:08;;;;;;;1.63;0.60;;;;;;;8.15;49.46;94094.72;4986913;28;20199;-85
2023/03/14 13:46:34;;;;;;;2.37;0.50;;;;;;;8.24;51.00;94135.09;5013341;28;20226;-85
2023/03/14 13:49:02;;;;;;;1.93;0.70;;;;;;;8.35;49.41;94120.19;5026244;28;20189;-86
2023/03/14 13:51:31;;;;;;;2.17;0.63;;;;;;;8.10;49.48;94138.34;4984321;28;20202;-86
2023/03/14 13:53:58;;;;;;;4.67;0.63;;;;;;;7.94;48.77;94123.69;5006005;28;20254;-86
2023/03/14 13:56:26;;;;;;;2.20;0.80;;;;;;;7.84;49.09;94132.63;5011523;28;20206;-86
2023/03/14 13:58:52;;;;;;;2.50;0.73;;;;;;;7.50;48.98;94151.72;4980110;28;20754;-85
2023/03/14 14:01:25;;;;;;;2.10;0.90;;;;;;;7.62;50.14;94155.59;4997259;28;20194;-85
2023/03/14 14:03:52;;;;;;;0.50;0.50;;;;;;;7.72;51.01;94183.84;4989732;28;20199;-85
2023/03/14 14:06:30;;;;;;;2.53;0.70;;;;;;;7.81;50.29;94182.88;4987195;28;20219;-85
2023/03/14 14:08:58;;;;;;;2.47;0.90;;;;;;;7.80;50.88;94193.38;5024277;28;20665;-86
2023/03/14 14:11:40;;;;;;;6.30;1.00;;;;;;;7.73;50.11;94207.91;4990100;28;20202;-87
2023/03/14 14:14:11;;;;;;;1.47;0.70;;;;;;;7.81;51.10;94226.81;4993143;28;20196;-87
2023/03/14 14:16:36;;;;;;;5.03;1.00;;;;;;;8.10;50.16;94241.78;5003595;28;20202;-87
2023/03/14 14:19:02;;;;;;;2.13;0.73;;;;;;;7.29;50.39;94247.75;5018765;28;20178;-86
2023/03/14 14:21:27;;;;;;;2.00;0.70;;;;;;;7.59;49.21;94251.50;4998111;28;20183;-86
2023/03/14 14:23:53;;;;;;;4.40;0.90;;;;;;;7.82;49.82;94251.66;4982524;28;20558;-86
2023/03/14 14:26:19;;;;;;;4.40;0.90;;;;;;;7.80;49.78;94258.78;4999240;28;20215;-86
2023/03/14 14:28:46;;;;;;;2.60;1.00;;;;;;;7.88;49.41;94289.00;5014889;28;20792;-85
2023/03/14 14:31:14;;;;;;;2.20;0.87;;;;;;;7.98;48.90;94268.16;5001165;28;20219;-86
2023/03/14 14:33:45;;;;;;;1.23;0.90;;;;;;;7.87;49.36;94284.78;5020276;28;20266;-84
2023/03/14 14:36:40;;;;;;;3.17;1.17;;;;;;;7.80;49.28;94289.78;4982607;28;20199;-84
2023/03/14 14:39:08;;;;;;;4.60;1.40;;;;;;;7.92;49.29;94283.31;4935700;29;20282;-85
2023/03/14 14:41:35;;;;;;;2.87;1.30;;;;;;;7.70;48.30;94296.09;4933568;29;20840;-87
2023/03/14 14:44:03;;;;;;;3.70;1.10;;;;;;;7.74;48.98;94318.06;4955074;28;20293;-85
2023/03/14 14:46:30;;;;;;;1.90;0.90;;;;;;;7.75;49.19;94319.66;4954482;29;20681;-83
2023/03/14 14:48:58;;;;;;;2.00;1.10;;;;;;;7.84;49.90;94319.50;4940761;29;20205;-86
2023/03/14 14:51:31;;;;;;;3.53;1.23;;;;;;;7.71;49.65;94320.97;4940516;29;20201;-84
2023/03/14 14:54:09;;;;;;;2.30;1.40;;;;;;;7.62;49.09;94327.91;4940612;29;20284;-84
2023/03/14 14:56:36;;;;;;;5.47;1.20;;;;;;;7.85;49.69;94341.00;4936131;29;20264;-85
2023/03/14 14:59:04;;;;;;;3.20;1.77;;;;;;;7.62;50.54;94336.44;4924915;29;20193;-85
2023/03/14 15:01:39;;;;;;;1.90;1.00;;;;;;;7.75;50.62;94350.66;4940112;29;20481;-86
2023/03/14 15:04:10;;;;;;;3.60;1.13;;;;;;;7.92;50.09;94342.78;4940075;29;20201;-87
2023/03/14 15:06:36;;;;;;;2.30;1.23;;;;;;;7.91;50.89;94355.88;4954977;29;20365;-86
2023/03/14 15:09:01;;;;;;;3.43;1.27;;;;;;;8.11;50.27;94352.00;4924029;29;20668;-86
2023/03/14 15:11:27;;;;;;;11.73;4.37;;;;;;;8.03;49.88;94356.34;4936661;29;20197;-86
2023/03/14 15:13:52;;;;;;;10.67;5.77;;;;;;;7.76;50.06;94363.44;4955666;29;20197;-86
2023/03/14 15:16:20;;;;;;;8.00;4.67;;;;;;;7.81;50.73;94368.94;4988660;28;20218;-84
2023/03/14 15:18:50;;;;;;;8.33;2.00;;;;;;;8.00;51.24;94364.44;4990992;28;20229;-85
2023/03/14 15:21:15;;;;;;;4.83;1.67;;;;;;;8.04;50.47;94363.13;5008200;28;20183;-89
2023/03/14 15:23:40;;;;;;;3.03;1.20;;;;;;;8.05;50.62;94357.03;4985787;28;20199;-84
2023/03/14 15:26:18;;;;;;;4.60;1.30;;;;;;;8.16;50.79;94360.09;4994645;28;20218;-86
2023/03/14 15:28:43;;;;;;;5.37;1.40;;;;;;;8.27;49.94;94352.97;5008004;28;20693;-84
2023/03/14 15:31:10;;;;;;;2.80;1.20;;;;;;;8.08;49.68;94378.19;5007670;28;20191;-84
2023/03/14 15:33:36;;;;;;;3.57;1.17;;;;;;;7.88;50.29;94367.34;5016944;28;20209;-85
2023/03/14 15:36:01;;;;;;;3.53;1.00;;;;;;;8.13;51.29;94375.94;4990834;28;20677;-85
2023/03/14 15:38:26;;;;;;;4.27;1.20;;;;;;;7.99;51.49;94386.91;4989066;28;20577;-84
2023/03/14 15:40:52;;;;;;;1.87;1.23;;;;;;;8.29;51.07;94382.06;4991861;28;20194;-84
2023/03/14 15:43:18;;;;;;;3.30;1.17;;;;;;;8.13;51.19;94372.53;5013938;28;20276;-83
2023/03/14 15:45:43;;;;;;;2.93;1.40;;;;;;;8.16;50.93;94385.94;4997284;28;20202;-86
2023/03/14 15:48:20;;;;;;;2.53;1.20;;;;;;;8.17;51.43;94391.94;4997857;28;20214;-85
2023/03/14 15:50:47;;;;;;;2.20;1.10;;;;;;;7.59;52.44;94390.19;4997415;28;20189;-86
2023/03/14 15:53:12;;;;;;;2.97;1.20;;;;;;;7.94;52.64;94407.25;5001353;28;20226;-87
2023/03/14 15:55:37;;;;;;;1.90;1.10;;;;;;;7.96;52.64;94410.50;4993920;28;20213;-85
2023/03/14 15:58:03;;;;;;;3.00;0.97;;;;;;;7.74;53.03;94400.75;5001347;28;20202;-89
2023/03/14 16:00:29;;;;;;;5.87;1.17;;;;;;;7.70;52.88;94417.53;5010015;28;20194;-86
2023/03/14 16:02:56;;;;;;;5.17;1.27;;;;;;;7.71;53.96;94411.41;4997136;28;20662;-84
2023/03/14 16:05:40;;;;;;;3.27;1.20;;;;;;;7.70;53.84;94414.97;5002747;28;20238;-85
2023/03/14 16:08:05;;;;;;;4.67;1.23;;;;;;;7.70;54.29;94414.97;5000280;28;20194;-84
2023/03/14 16:10:31;;;;;;;2.80;1.47;;;;;;;7.76;54.33;94419.47;5000853;28;20190;-84
2023/03/14 16:12:56;;;;;;;4.70;1.27;;;;;;;7.64;53.99;94411.22;5013822;28;20613;-87
2023/03/14 16:15:22;;;;;;;5.60;1.07;;;;;;;7.56;54.70;94424.91;5009764;28;20187;-85
2023/03/14 16:17:48;;;;;;;2.53;1.30;;;;;;;7.57;54.73;94407.63;4997387;28;20221;-88
2023/03/14 16:20:13;;;;;;;3.93;1.10;;;;;;;7.49;54.94;94423.91;5001000;28;20896;-86
2023/03/14 16:22:39;;;;;;;3.70;1.47;;;;;;;7.62;55.06;94413.97;4993454;28;20197;-86
2023/03/14 16:25:06;;;;;;;4.63;1.80;;;;;;;7.66;54.55;94433.34;4996524;28;20206;-86
2023/03/14 16:27:32;;;;;;;3.67;1.10;;;;;;;7.39;54.91;94418.88;5003656;28;20230;-86
2023/03/14 16:29:59;;;;;;;4.83;2.10;;;;;;;7.53;54.98;94429.59;4994327;28;20194;-87
2023/03/14 16:32:25;;;;;;;10.10;4.67;;;;;;;7.64;54.11;94442.22;4990992;28;20194;-84
2023/03/14 16:34:54;;;;;;;19.60;11.17;;;;;;;7.71;53.92;94440.63;5014121;28;20195;-84
2023/03/14 16:37:20;;;;;;;6.43;3.47;;;;;;;7.60;54.94;94454.66;5014636;28;20210;-86
2023/03/14 16:39:48;;;;;;;16.70;8.27;;;;;;;7.50;55.65;94461.69;4993807;28;20252;-87
2023/03/14 16:42:13;;;;;;;15.37;8.27;;;;;;;7.44;56.19;94470.09;4989712;28;20198;-85
2023/03/14 16:44:38;;;;;;;16.47;10.80;;;;;;;7.11;58.74;94487.16;4999064;28;20194;-87
2023/03/14 16:47:04;;;;;;;35.20;22.63;;;;;;;6.98;62.63;94490.16;5024300;28;20667;-87
2023/03/14 16:49:29;;;;;;;17.80;9.47;;;;;;;6.81;65.58;94501.34;5023051;28;20236;-85
2023/03/14 16:51:54;;;;;;;11.40;6.67;;;;;;;6.41;69.25;94512.13;4999135;28;20205;-87
2023/03/14 16:54:20;;;;;;;16.30;10.30;;;;;;;5.89;72.49;94511.88;5007775;28;20226;-84
2023/03/14 16:56:46;;;;;;;26.83;14.97;;;;;;;5.91;75.56;94525.44;4998540;28;20677;-84
2023/03/14 16:59:12;;;;;;;5.00;2.43;;;;;;;5.60;77.74;94530.88;5016048;28;20179;-83
2023/03/14 17:01:39;;;;;;;12.30;4.73;;;;;;;5.58;78.67;94537.94;5007098;28;20702;-84
2023/03/14 17:04:08;;;;;;;18.17;10.60;;;;;;;5.58;79.47;94544.84;5007107;28;20557;-85
2023/03/14 17:06:33;;;;;;;18.80;9.17;;;;;;;5.68;79.47;94553.34;5005207;28;20210;-87
2023/03/14 17:08:58;;;;;;;31.60;14.57;;;;;;;5.50;80.30;94557.63;4997846;28;20182;-88
2023/03/14 17:11:24;;;;;;;20.77;10.33;;;;;;;5.28;81.27;94538.97;5016472;28;20273;-83
2023/03/14 17:13:49;;;;;;;16.27;8.20;;;;;;;5.44;80.38;94551.25;4999614;28;20182;-84
2023/03/14 17:16:15;;;;;;;21.23;10.90;;;;;;;5.29;81.16;94550.88;4995235;28;20210;-88
2023/03/14 17:18:40;;;;;;;10.13;3.10;;;;;;;5.20;81.69;94551.72;5012740;28;20310;-85
2023/03/14 17:21:06;;;;;;;7.40;2.00;;;;;;;4.98;82.20;94552.03;4997326;28;20197;-90
2023/03/14 17:23:44;;;;;;;4.27;2.30;;;;;;;4.90;83.42;94559.63;5005695;28;20191;-86
2023/03/14 17:26:11;;;;;;;5.13;1.80;;;;;;;4.98;83.23;94558.00;4997950;28;20221;-85
2023/03/14 17:28:37;;;;;;;3.47;1.40;;;;;;;4.83;83.52;94547.31;4996013;28;20716;-83
2023/03/14 17:31:05;;;;;;;7.63;1.80;;;;;;;4.89;83.07;94560.59;5009505;28;20324;-86
2023/03/14 17:33:30;;;;;;;4.83;2.40;;;;;;;4.98;82.60;94570.88;5010301;28;20747;-84
2023/03/14 17:35:55;;;;;;;4.50;1.40;;;;;;;4.94;82.84;94582.38;4991754;28;20288;-84
2023/03/14 17:38:24;;;;;;;3.57;1.97;;;;;;;4.99;82.50;94590.50;4993184;28;20217;-83
2023/03/14 17:40:52;;;;;;;5.20;1.70;;;;;;;5.02;82.28;94597.13;4987472;28;20193;-84
2023/03/14 17:43:20;;;;;;;7.20;2.03;;;;;;;4.98;82.51;94600.94;5010179;28;20727;-86
2023/03/14 17:45:46;;;;;;;4.07;1.90;;;;;;;4.78;84.70;94595.81;4990374;28;20221;-85
2023/03/14 17:48:13;;;;;;;4.13;1.90;;;;;;;4.67;84.96;94590.78;4995262;28;20290;-84
2023/03/14 17:53:53;;;;;;;4.70;1.10;;;;;;;4.43;84.72;94595.50;5031816;28;20182;-86
2023/03/14 18:22:14;;;;;;;2.77;1.10;;;;;;;4.18;78.36;94627.66;5436000;23;20308;-85
2023/03/14 18:25:21;;;;;;;2.90;1.53;;;;;;;4.31;78.38;94619.69;4973335;28;20195;-83
2023/03/14 18:31:12;;;;;;;2.97;1.57;;;;;;;4.30;79.63;94626.59;4883159;29;20203;-84
2023/03/14 18:34:11;;;;;;;3.50;1.20;;;;;;;4.19;79.74;94636.97;4849149;29;20223;-83